Time;durP1;ratioP1;P1;durP2;ratioP2;P2;SDS_P1;SDS_P2;PMS_P1;PMS_P2;Temp;Humidity;BMP_temperature;BMP_pressure;BME280_temperature;BME280_humidity;BME280_pressure;Samples;Min_cycle;Max_cycle;Signal;HPM_P1;HPM_P2
2022/08/09 00:00:09;;;;;;;19.40;4.43;;;;;;;;;;6197243;28;20025;-75
2022/08/09 00:03:09;;;;;;;11.68;4.63;;;;;;;;;;6196900;28;20021;-75
2022/08/09 00:06:10;;;;;;;13.23;4.77;;;;;;;;;;6196316;28;20098;-75
2022/08/09 00:09:10;;;;;;;9.55;4.60;;;;;;;;;;6194757;28;20042;-75
2022/08/09 00:12:10;;;;;;;9.83;4.10;;;;;;;;;;6194854;28;20028;-75
2022/08/09 00:15:11;;;;;;;10.90;5.47;;;;;;;;;;6194305;28;20018;-75
2022/08/09 00:18:11;;;;;;;11.00;4.40;;;;;;;;;;6194533;28;20028;-75
2022/08/09 00:21:11;;;;;;;10.23;4.87;;;;;;;;;;6193362;28;20018;-75
2022/08/09 00:24:11;;;;;;;10.25;3.83;;;;;;;;;;6196346;28;20502;-74
2022/08/09 00:27:12;;;;;;;8.90;4.07;;;;;;;;;;6195861;28;20452;-74
2022/08/09 00:30:12;;;;;;;12.90;4.20;;;;;;;;;;6194735;28;20100;-74
2022/08/09 00:33:12;;;;;;;10.45;4.05;;;;;;;;;;6195841;28;20017;-75
2022/08/09 00:36:13;;;;;;;18.30;5.47;;;;;;;;;;6195356;28;20049;-75
2022/08/09 00:39:13;;;;;;;7.10;3.55;;;;;;;;;;6194858;28;20298;-75
2022/08/09 00:42:13;;;;;;;6.97;4.10;;;;;;;;;;6195744;28;20020;-75
2022/08/09 00:45:13;;;;;;;9.10;4.77;;;;;;;;;;6194399;28;20026;-75
2022/08/09 00:48:14;;;;;;;9.27;4.27;;;;;;;;;;6195926;28;20439;-75
2022/08/09 00:51:15;;;;;;;8.30;4.20;;;;;;;;;;6206633;28;20100;-75
2022/08/09 00:54:15;;;;;;;14.98;4.97;;;;;;;;;;6224886;28;20010;-75
2022/08/09 00:57:15;;;;;;;10.93;4.38;;;;;;;;;;6195397;28;20072;-74
2022/08/09 01:00:16;;;;;;;15.00;6.43;;;;;;;;;;6196831;28;20085;-74
2022/08/09 01:03:21;;;;;;;7.30;3.93;;;;;;;;;;6197260;28;20015;-76
2022/08/09 01:06:27;;;;;;;7.20;4.00;;;;;;;;;;6196816;28;20029;-75
2022/08/09 01:09:36;;;;;;;12.30;4.47;;;;;;;;;;6210515;28;20014;-76
2022/08/09 01:13:05;;;;;;;17.35;5.25;;;;;;;;;;6195607;28;20030;-76
2022/08/09 01:16:08;;;;;;;9.13;4.50;;;;;;;;;;6199876;28;20034;-76
2022/08/09 01:19:17;;;;;;;13.43;4.80;;;;;;;;;;6196713;28;20022;-75
2022/08/09 01:22:26;;;;;;;11.20;4.05;;;;;;;;;;6184940;28;20018;-76
2022/08/09 01:25:49;;;;;;;9.77;4.70;;;;;;;;;;6197455;28;20467;-75
2022/08/09 01:28:51;;;;;;;9.65;3.72;;;;;;;;;;6200161;28;20031;-75
2022/08/09 01:31:54;;;;;;;10.07;4.25;;;;;;;;;;6195440;28;20010;-76
2022/08/09 01:34:55;;;;;;;12.70;4.95;;;;;;;;;;6194843;28;20117;-76
2022/08/09 01:37:56;;;;;;;10.35;4.10;;;;;;;;;;6197035;28;20032;-76
2022/08/09 01:41:10;;;;;;;6.32;3.47;;;;;;;;;;6194822;28;20026;-76
2022/08/09 01:44:12;;;;;;;8.35;4.07;;;;;;;;;;6199637;28;20049;-76
2022/08/09 01:47:13;;;;;;;6.93;4.43;;;;;;;;;;6200550;28;20046;-76
2022/08/09 01:50:14;;;;;;;9.17;4.43;;;;;;;;;;6194859;28;20028;-76
2022/08/09 01:53:15;;;;;;;8.70;4.60;;;;;;;;;;6200791;28;20025;-76
2022/08/09 01:56:16;;;;;;;10.33;4.67;;;;;;;;;;6200804;28;20022;-76
2022/08/09 01:59:18;;;;;;;12.50;5.00;;;;;;;;;;6196116;28;20014;-76
2022/08/09 02:02:19;;;;;;;11.90;4.72;;;;;;;;;;6199729;28;20018;-76
2022/08/09 02:05:21;;;;;;;9.80;4.22;;;;;;;;;;6200119;28;20018;-75
2022/08/09 02:08:22;;;;;;;11.50;3.97;;;;;;;;;;6199630;28;20102;-75
2022/08/09 02:11:23;;;;;;;7.55;4.40;;;;;;;;;;6199347;28;20096;-76
2022/08/09 02:14:24;;;;;;;12.23;4.80;;;;;;;;;;6197571;28;20010;-76
2022/08/09 02:17:26;;;;;;;7.57;4.13;;;;;;;;;;6198906;28;20022;-76
2022/08/09 02:20:27;;;;;;;8.18;3.97;;;;;;;;;;6198903;28;20014;-76
2022/08/09 02:23:34;;;;;;;10.55;4.18;;;;;;;;;;6196142;28;20033;-76
2022/08/09 02:26:35;;;;;;;6.40;3.67;;;;;;;;;;6196919;28;20529;-75
2022/08/09 02:29:42;;;;;;;8.50;5.00;;;;;;;;;;6212806;28;20031;-75
2022/08/09 02:32:43;;;;;;;7.45;4.85;;;;;;;;;;6198400;28;20386;-75
2022/08/09 02:35:44;;;;;;;11.93;4.95;;;;;;;;;;6197362;28;20046;-75
2022/08/09 02:38:46;;;;;;;8.82;4.35;;;;;;;;;;6199762;28;20471;-74
2022/08/09 02:41:49;;;;;;;8.65;4.22;;;;;;;;;;6199052;28;20026;-75
2022/08/09 02:44:52;;;;;;;13.65;5.00;;;;;;;;;;6199457;28;20049;-76
2022/08/09 02:47:53;;;;;;;10.80;4.85;;;;;;;;;;6193260;28;20022;-76
2022/08/09 02:50:55;;;;;;;8.85;5.20;;;;;;;;;;6199032;28;20030;-76
2022/08/09 02:53:56;;;;;;;;;;;;;;;;;;6198445;28;20026;-76
2022/08/09 02:56:58;;;;;;;8.63;4.68;;;;;;;;;;6200000;28;19917;-76
2022/08/09 02:59:58;;;;;;;;;;;;;;;;;;6199890;28;20068;-75
2022/08/09 03:02:59;;;;;;;8.57;4.13;;;;;;;;;;6199068;28;19909;-76
2022/08/09 03:06:00;;;;;;;12.60;5.40;;;;;;;;;;6200872;28;20087;-76
2022/08/09 03:09:01;;;;;;;11.07;4.40;;;;;;;;;;6198389;28;20054;-76
2022/08/09 03:12:03;;;;;;;7.47;4.27;;;;;;;;;;6197747;28;20023;-76
2022/08/09 03:15:04;;;;;;;8.40;4.68;;;;;;;;;;6198398;28;20022;-76
2022/08/09 03:18:05;;;;;;;7.20;4.23;;;;;;;;;;6198616;28;20220;-76
2022/08/09 03:21:05;;;;;;;9.52;4.82;;;;;;;;;;6197362;28;20266;-75
2022/08/09 03:24:06;;;;;;;7.05;3.53;;;;;;;;;;6196964;28;20018;-75
2022/08/09 03:27:07;;;;;;;8.88;3.83;;;;;;;;;;6196465;28;20025;-75
2022/08/09 03:30:09;;;;;;;8.18;4.43;;;;;;;;;;6229945;28;20014;-75
2022/08/09 03:33:09;;;;;;;11.55;4.57;;;;;;;;;;6197333;28;20483;-75
2022/08/09 03:36:10;;;;;;;5.60;3.90;;;;;;;;;;6196749;28;20045;-75
2022/08/09 03:39:10;;;;;;;6.80;3.67;;;;;;;;;;6202925;28;20018;-76
2022/08/09 03:42:10;;;;;;;9.13;4.70;;;;;;;;;;6197006;28;20037;-75
2022/08/09 03:45:10;;;;;;;9.13;4.00;;;;;;;;;;6198080;28;20261;-75
2022/08/09 03:48:11;;;;;;;9.30;5.27;;;;;;;;;;6196417;28;20603;-75
2022/08/09 03:51:12;;;;;;;9.13;4.47;;;;;;;;;;6197245;28;20272;-75
2022/08/09 03:54:13;;;;;;;6.73;3.37;;;;;;;;;;6197283;28;20292;-76
2022/08/09 03:57:13;;;;;;;9.63;4.30;;;;;;;;;;6196446;28;20318;-76
2022/08/09 04:00:14;;;;;;;6.72;4.53;;;;;;;;;;6197784;28;20080;-76
2022/08/09 04:03:15;;;;;;;11.98;5.30;;;;;;;;;;6197689;28;20548;-76
2022/08/09 04:06:15;;;;;;;13.80;4.95;;;;;;;;;;6197856;28;20104;-76
2022/08/09 04:09:16;;;;;;;12.60;5.03;;;;;;;;;;6198338;28;20474;-76
2022/08/09 04:12:16;;;;;;;9.20;4.72;;;;;;;;;;6197589;28;20371;-76
2022/08/09 04:15:17;;;;;;;12.80;4.80;;;;;;;;;;6197432;28;20053;-76
2022/08/09 04:18:18;;;;;;;9.35;4.57;;;;;;;;;;6201646;28;20029;-75
2022/08/09 04:21:18;;;;;;;6.95;4.50;;;;;;;;;;6197135;28;20010;-76
2022/08/09 04:24:18;;;;;;;8.43;5.10;;;;;;;;;;6200897;28;20458;-76
2022/08/09 04:27:18;;;;;;;10.45;5.88;;;;;;;;;;6196572;28;20994;-75
2022/08/09 04:30:19;;;;;;;8.57;5.07;;;;;;;;;;6197696;28;20042;-76
2022/08/09 04:33:19;;;;;;;10.88;5.30;;;;;;;;;;6198486;28;20277;-76
2022/08/09 04:36:20;;;;;;;17.05;5.63;;;;;;;;;;6197604;28;21032;-76
2022/08/09 04:39:20;;;;;;;13.97;7.03;;;;;;;;;;6196106;28;20266;-75
2022/08/09 04:42:21;;;;;;;16.88;6.45;;;;;;;;;;6197194;28;20573;-76
2022/08/09 04:45:21;;;;;;;13.50;5.88;;;;;;;;;;6195692;28;20267;-76
2022/08/09 04:48:21;;;;;;;10.67;5.27;;;;;;;;;;6197398;28;20007;-76
2022/08/09 04:51:22;;;;;;;11.13;4.53;;;;;;;;;;6197131;28;20020;-76
2022/08/09 04:54:22;;;;;;;11.93;5.78;;;;;;;;;;6195816;28;20265;-75
2022/08/09 04:57:23;;;;;;;14.90;6.47;;;;;;;;;;6198169;28;20488;-75
2022/08/09 05:00:23;;;;;;;10.90;5.03;;;;;;;;;;6204231;28;20076;-75
2022/08/09 05:03:23;;;;;;;12.33;5.60;;;;;;;;;;6196515;28;20019;-76
2022/08/09 05:06:24;;;;;;;12.37;6.83;;;;;;;;;;6195928;28;20025;-76
2022/08/09 05:09:24;;;;;;;13.77;4.63;;;;;;;;;;6197603;28;20121;-76
2022/08/09 05:12:24;;;;;;;11.37;5.47;;;;;;;;;;6197344;28;20024;-76
2022/08/09 05:15:25;;;;;;;9.55;4.43;;;;;;;;;;6196309;28;20026;-76
2022/08/09 05:18:28;;;;;;;14.07;4.20;;;;;;;;;;6198884;28;20018;-76
2022/08/09 05:21:28;;;;;;;8.85;4.00;;;;;;;;;;6198805;28;20030;-76
2022/08/09 05:24:29;;;;;;;11.07;4.20;;;;;;;;;;6202189;28;20049;-76
2022/08/09 05:27:29;;;;;;;9.57;3.70;;;;;;;;;;6213317;28;20034;-76
2022/08/09 05:30:29;;;;;;;11.47;3.50;;;;;;;;;;6200642;28;20097;-76
2022/08/09 05:33:30;;;;;;;11.47;4.27;;;;;;;;;;6208628;28;20029;-76
2022/08/09 05:36:30;;;;;;;8.07;3.50;;;;;;;;;;6201871;28;20030;-76
2022/08/09 05:39:30;;;;;;;8.33;3.60;;;;;;;;;;6201556;28;20069;-77
2022/08/09 05:42:30;;;;;;;8.40;4.03;;;;;;;;;;6200270;28;20052;-77
2022/08/09 05:45:30;;;;;;;10.20;3.60;;;;;;;;;;6199921;28;20041;-77
2022/08/09 05:48:31;;;;;;;;;;;;;;;;;;6200468;28;20019;-78
2022/08/09 05:51:31;;;;;;;6.65;3.42;;;;;;;;;;6201534;28;19905;-77
2022/08/09 05:54:31;;;;;;;;;;;;;;;;;;6200007;28;20018;-78
2022/08/09 05:57:31;;;;;;;8.45;3.15;;;;;;;;;;6198800;28;20293;-76
2022/08/09 06:00:31;;;;;;;8.77;2.53;;;;;;;;;;6198301;28;20055;-76
2022/08/09 06:03:32;;;;;;;9.43;2.57;;;;;;;;;;6198249;28;20064;-76
2022/08/09 06:06:32;;;;;;;9.20;2.93;;;;;;;;;;6201329;28;20069;-75
2022/08/09 06:09:32;;;;;;;7.67;2.63;;;;;;;;;;6199515;28;20065;-75
2022/08/09 06:12:33;;;;;;;6.27;2.33;;;;;;;;;;6199291;28;20765;-75
2022/08/09 06:15:33;;;;;;;5.10;2.13;;;;;;;;;;6199173;28;20285;-77
2022/08/09 06:18:33;;;;;;;5.73;1.57;;;;;;;;;;6200184;28;20029;-76
2022/08/09 06:21:36;;;;;;;11.00;1.70;;;;;;;;;;6199861;28;20328;-77
2022/08/09 06:24:37;;;;;;;3.17;1.52;;;;;;;;;;6200561;28;20022;-77
2022/08/09 06:27:37;;;;;;;5.10;1.43;;;;;;;;;;6201288;28;20030;-75
2022/08/09 06:30:37;;;;;;;13.27;2.00;;;;;;;;;;6201573;28;20022;-75
2022/08/09 06:33:37;;;;;;;3.27;1.50;;;;;;;;;;6200897;28;20031;-75
2022/08/09 06:36:38;;;;;;;6.07;1.63;;;;;;;;;;6197184;28;20070;-75
2022/08/09 06:39:38;;;;;;;5.30;1.80;;;;;;;;;;6198663;28;20073;-75
2022/08/09 06:42:38;;;;;;;6.00;1.58;;;;;;;;;;6199756;28;20097;-75
2022/08/09 06:45:38;;;;;;;5.38;1.38;;;;;;;;;;6199837;28;20025;-76
2022/08/09 06:48:41;;;;;;;9.43;2.23;;;;;;;;;;6200967;28;20054;-76
2022/08/09 06:51:41;;;;;;;5.68;1.80;;;;;;;;;;6200726;28;20030;-75
2022/08/09 06:54:42;;;;;;;5.60;1.80;;;;;;;;;;6198520;28;20025;-75
2022/08/09 06:57:42;;;;;;;5.63;1.63;;;;;;;;;;6202007;28;20029;-77
2022/08/09 07:00:42;;;;;;;4.57;2.10;;;;;;;;;;6200816;28;20022;-76
2022/08/09 07:03:42;;;;;;;6.77;1.83;;;;;;;;;;6198931;28;20025;-76
2022/08/09 07:06:43;;;;;;;5.68;1.52;;;;;;;;;;6196795;28;20117;-77
2022/08/09 07:09:43;;;;;;;4.03;1.57;;;;;;;;;;6193707;28;20030;-77
2022/08/09 07:12:44;;;;;;;5.72;1.83;;;;;;;;;;6199339;28;20083;-77
2022/08/09 07:15:44;;;;;;;6.10;1.67;;;;;;;;;;6198852;28;20034;-76
2022/08/09 07:18:44;;;;;;;3.40;1.50;;;;;;;;;;6201776;28;20022;-77
2022/08/09 07:21:45;;;;;;;5.40;1.33;;;;;;;;;;6200458;28;20026;-77
2022/08/09 07:24:45;;;;;;;4.50;1.35;;;;;;;;;;6203197;28;20110;-77
2022/08/09 07:27:45;;;;;;;4.87;1.20;;;;;;;;;;6200386;28;20029;-77
2022/08/09 07:30:45;;;;;;;6.45;1.55;;;;;;;;;;6195578;28;20514;-76
2022/08/09 07:33:46;;;;;;;4.93;1.60;;;;;;;;;;6195446;28;20380;-77
2022/08/09 07:36:47;;;;;;;3.67;1.43;;;;;;;;;;6201483;28;20035;-77
2022/08/09 07:39:47;;;;;;;4.68;1.83;;;;;;;;;;6197079;28;20288;-77
2022/08/09 07:42:48;;;;;;;5.10;1.13;;;;;;;;;;6192782;28;20030;-78
2022/08/09 07:45:48;;;;;;;3.17;1.20;;;;;;;;;;6196684;28;20430;-76
2022/08/09 07:48:49;;;;;;;2.65;1.08;;;;;;;;;;6193741;28;20022;-77
2022/08/09 07:51:49;;;;;;;1.38;1.00;;;;;;;;;;6193533;28;20026;-76
2022/08/09 07:54:49;;;;;;;3.67;1.50;;;;;;;;;;6197634;28;20022;-76
2022/08/09 07:57:50;;;;;;;1.80;1.00;;;;;;;;;;6195898;28;20018;-76
2022/08/09 08:00:50;;;;;;;5.13;1.40;;;;;;;;;;6196162;28;20046;-76
2022/08/09 08:03:50;;;;;;;2.70;1.30;;;;;;;;;;6195604;28;20056;-76
2022/08/09 08:06:50;;;;;;;4.97;1.60;;;;;;;;;;6194372;28;20270;-76
2022/08/09 08:09:51;;;;;;;4.72;1.60;;;;;;;;;;6194527;28;20426;-76
2022/08/09 08:12:51;;;;;;;6.20;1.50;;;;;;;;;;6205904;28;20444;-77
2022/08/09 08:15:52;;;;;;;4.97;1.07;;;;;;;;;;6194925;28;20033;-77
2022/08/09 08:18:52;;;;;;;4.68;1.45;;;;;;;;;;6194251;28;20344;-77
2022/08/09 08:21:53;;;;;;;5.23;0.97;;;;;;;;;;6194034;28;20033;-77
2022/08/09 08:24:56;;;;;;;2.70;1.10;;;;;;;;;;6193491;28;20534;-76
2022/08/09 08:27:57;;;;;;;4.00;1.27;;;;;;;;;;6198647;28;20037;-77
2022/08/09 08:30:57;;;;;;;5.82;1.20;;;;;;;;;;6202644;28;20049;-76
2022/08/09 08:33:57;;;;;;;5.63;1.17;;;;;;;;;;6197516;28;20424;-76
2022/08/09 08:36:59;;;;;;;4.67;1.13;;;;;;;;;;6197829;28;20046;-76
2022/08/09 08:39:59;;;;;;;5.05;1.55;;;;;;;;;;6197143;28;20029;-76
2022/08/09 08:43:00;;;;;;;2.13;0.80;;;;;;;;;;6198170;28;20010;-76
2022/08/09 08:46:04;;;;;;;5.57;1.23;;;;;;;;;;6192086;28;20033;-76
2022/08/09 08:49:06;;;;;;;3.05;1.00;;;;;;;;;;6189094;28;20018;-76
2022/08/09 08:52:06;;;;;;;4.40;1.02;;;;;;;;;;6197071;28;20031;-76
2022/08/09 08:55:07;;;;;;;2.65;1.10;;;;;;;;;;6202279;28;20033;-77
2022/08/09 08:58:08;;;;;;;4.88;0.90;;;;;;;;;;6204893;28;20034;-76
2022/08/09 09:01:09;;;;;;;4.10;1.10;;;;;;;;;;6205688;28;20034;-77
2022/08/09 09:04:10;;;;;;;2.63;1.00;;;;;;;;;;6209382;28;20022;-76
2022/08/09 09:07:11;;;;;;;4.82;2.47;;;;;;;;;;6218304;28;20029;-76
2022/08/09 09:10:12;;;;;;;6.10;1.10;;;;;;;;;;6210825;28;20022;-76
2022/08/09 09:13:12;;;;;;;;;;;;;;;;;;6210625;28;20033;-76
2022/08/09 09:16:12;;;;;;;3.83;1.10;;;;;;;;;;6203322;28;19956;-76
2022/08/09 09:19:13;;;;;;;;;;;;;;;;;;6203836;28;20022;-78
2022/08/09 09:22:14;;;;;;;2.42;1.20;;;;;;;;;;6215850;28;19910;-77
2022/08/09 09:25:29;;;;;;;1.63;0.93;;;;;;;;;;6192043;28;20378;-77
2022/08/09 09:28:33;;;;;;;3.53;1.08;;;;;;;;;;6198514;28;20022;-77
2022/08/09 09:31:33;;;;;;;2.63;1.15;;;;;;;;;;6197331;28;20327;-77
2022/08/09 09:34:34;;;;;;;2.78;1.10;;;;;;;;;;6201630;28;20018;-77
2022/08/09 09:37:35;;;;;;;3.53;1.40;;;;;;;;;;6192004;28;20050;-77
2022/08/09 09:40:35;;;;;;;;;;;;;;;;;;6199183;28;20561;-75
2022/08/09 09:43:36;;;;;;;5.20;1.15;;;;;;;;;;6207683;28;19937;-77
2022/08/09 09:46:37;;;;;;;1.48;0.90;;;;;;;;;;6208683;28;20093;-76
2022/08/09 09:49:38;;;;;;;3.95;1.60;;;;;;;;;;6207555;28;20435;-76
2022/08/09 09:52:49;;;;;;;8.25;2.10;;;;;;;;;;6209805;28;20002;-75
2022/08/09 09:55:50;;;;;;;4.78;1.30;;;;;;;;;;6210412;28;20501;-76
2022/08/09 09:58:50;;;;;;;4.43;1.23;;;;;;;;;;6209193;28;20029;-75
2022/08/09 10:01:58;;;;;;;6.37;1.93;;;;;;;;;;6202745;28;20022;-76
2022/08/09 10:05:07;;;;;;;4.38;1.60;;;;;;;;;;6209164;28;20087;-75
2022/08/09 10:08:07;;;;;;;2.10;1.00;;;;;;;;;;6224483;28;20034;-76
2022/08/09 10:11:17;;;;;;;3.83;1.60;;;;;;;;;;6208159;28;20076;-76
2022/08/09 10:14:27;;;;;;;3.80;1.17;;;;;;;;;;6207878;28;20418;-76
2022/08/09 10:17:30;;;;;;;6.45;2.17;;;;;;;;;;6207920;28;20029;-76
2022/08/09 10:20:30;;;;;;;7.10;1.50;;;;;;;;;;6206625;28;20022;-76
2022/08/09 10:23:31;;;;;;;9.77;2.27;;;;;;;;;;6205722;28;20100;-76
2022/08/09 10:26:31;;;;;;;1.55;1.30;;;;;;;;;;6200431;28;20891;-76
2022/08/09 10:29:33;;;;;;;4.03;1.50;;;;;;;;;;6202241;28;20608;-76
2022/08/09 10:32:33;;;;;;;2.95;1.65;;;;;;;;;;6203653;28;20018;-77
2022/08/09 10:35:33;;;;;;;4.88;1.88;;;;;;;;;;6209100;28;21196;-76
2022/08/09 10:38:36;;;;;;;1.60;1.00;;;;;;;;;;6201506;28;20030;-76
2022/08/09 10:41:36;;;;;;;4.97;1.67;;;;;;;;;;6203872;28;20038;-76
2022/08/09 10:44:37;;;;;;;6.60;1.10;;;;;;;;;;6202269;28;20026;-76
2022/08/09 10:47:37;;;;;;;7.43;1.80;;;;;;;;;;6203471;28;20070;-76
2022/08/09 10:54:09;;;;;;;4.53;1.02;;;;;;;;;;6205324;28;20034;-76
2022/08/09 10:57:12;;;;;;;7.70;1.55;;;;;;;;;;6191916;28;20549;-76
2022/08/09 11:00:27;;;;;;;7.88;1.92;;;;;;;;;;6208999;28;20049;-76
2022/08/09 11:03:28;;;;;;;6.18;1.20;;;;;;;;;;6221683;28;20084;-76
2022/08/09 11:06:29;;;;;;;4.20;1.60;;;;;;;;;;6205102;28;20018;-76
2022/08/09 11:09:36;;;;;;;2.53;1.10;;;;;;;;;;6216818;28;20273;-76
2022/08/09 11:12:36;;;;;;;2.83;1.35;;;;;;;;;;6204340;28;20125;-76
2022/08/09 11:15:36;;;;;;;4.33;1.30;;;;;;;;;;6206535;28;20088;-76
2022/08/09 11:18:41;;;;;;;3.30;1.13;;;;;;;;;;6205501;28;20014;-77
2022/08/09 11:21:52;;;;;;;2.92;1.08;;;;;;;;;;6209979;28;20046;-76
2022/08/09 11:25:11;;;;;;;8.65;1.35;;;;;;;;;;6204531;28;20558;-76
2022/08/09 11:28:31;;;;;;;2.40;0.82;;;;;;;;;;6203343;28;20026;-77
2022/08/09 11:31:45;;;;;;;5.50;1.65;;;;;;;;;;6211138;28;20022;-76
2022/08/09 11:34:47;;;;;;;4.55;1.55;;;;;;;;;;6206782;28;20018;-77
2022/08/09 11:37:49;;;;;;;8.38;1.88;;;;;;;;;;6198864;28;20026;-76
2022/08/09 11:40:50;;;;;;;6.43;1.10;;;;;;;;;;6198411;28;20015;-77
2022/08/09 11:43:51;;;;;;;2.80;1.13;;;;;;;;;;6198249;28;20041;-77
2022/08/09 11:46:56;;;;;;;6.07;1.42;;;;;;;;;;6199422;28;20482;-76
2022/08/09 11:49:58;;;;;;;7.68;1.45;;;;;;;;;;6206757;28;20037;-77
2022/08/09 11:52:58;;;;;;;4.60;1.65;;;;;;;;;;6232267;28;20061;-77
2022/08/09 11:55:58;;;;;;;;;;;;;;;;;;6206942;28;20510;-77
2022/08/09 11:58:59;;;;;;;6.28;1.55;;;;;;;;;;6188481;28;19893;-77
2022/08/09 12:01:59;;;;;;;;;;;;;;;;;;6198653;28;20022;-75
2022/08/09 12:05:00;;;;;;;7.82;1.98;;;;;;;;;;6196662;28;20305;-77
2022/08/09 12:08:00;;;;;;;;;;;;;;;;;;6198049;28;20019;-77
2022/08/09 12:11:00;;;;;;;4.82;1.80;;;;;;;;;;6193710;28;19949;-78
2022/08/09 12:14:00;;;;;;;;;;;;;;;;;;6197037;28;20481;-78
2022/08/09 12:17:04;;;;;;;4.68;1.50;;;;;;;;;;6193482;28;19914;-77
2022/08/09 12:20:15;;;;;;;4.70;1.42;;;;;;;;;;6192856;28;20018;-77
2022/08/09 12:23:15;;;;;;;5.00;1.50;;;;;;;;;;6235408;28;20521;-77
2022/08/09 12:26:15;;;;;;;5.38;1.30;;;;;;;;;;6200573;28;20046;-75
2022/08/09 12:29:16;;;;;;;;;;;;;;;;;;6192594;28;20037;-74
2022/08/09 12:32:23;;;;;;;6.15;1.30;;;;;;;;;;6206677;28;19949;-75
2022/08/09 12:35:23;;;;;;;4.45;1.95;;;;;;;;;;6185860;28;20061;-77
2022/08/09 12:38:29;;;;;;;4.80;1.42;;;;;;;;;;6193043;28;20066;-77
2022/08/09 12:41:31;;;;;;;3.83;1.40;;;;;;;;;;6192676;28;20027;-77
2022/08/09 12:44:31;;;;;;;7.63;1.70;;;;;;;;;;6195175;28;20125;-77
2022/08/09 12:47:31;;;;;;;6.43;1.60;;;;;;;;;;6192754;28;20014;-77
2022/08/09 12:50:33;;;;;;;8.80;2.23;;;;;;;;;;6193377;28;20042;-77
2022/08/09 12:53:38;;;;;;;12.88;2.53;;;;;;;;;;6192616;28;20026;-77
2022/08/09 12:56:45;;;;;;;6.97;1.95;;;;;;;;;;6194990;28;20018;-77
2022/08/09 12:59:46;;;;;;;9.02;2.03;;;;;;;;;;6197421;28;20042;-76
2022/08/09 13:02:54;;;;;;;5.37;2.13;;;;;;;;;;6194111;28;20018;-75
2022/08/09 13:05:54;;;;;;;10.98;1.90;;;;;;;;;;6198101;28;20090;-76
2022/08/09 13:09:13;;;;;;;6.57;1.80;;;;;;;;;;6196141;28;20068;-75
2022/08/09 13:12:14;;;;;;;7.60;1.67;;;;;;;;;;6212086;28;20109;-77
2022/08/09 13:15:14;;;;;;;3.43;1.43;;;;;;;;;;6196529;28;20025;-75
2022/08/09 13:18:14;;;;;;;3.05;1.42;;;;;;;;;;6200374;28;20018;-74
2022/08/09 13:21:18;;;;;;;5.33;1.67;;;;;;;;;;6200733;28;20085;-75
2022/08/09 13:24:29;;;;;;;3.10;1.13;;;;;;;;;;6201110;28;20477;-75
2022/08/09 13:27:31;;;;;;;1.33;0.88;;;;;;;;;;6199922;28;20038;-76
2022/08/09 13:30:31;;;;;;;5.03;1.13;;;;;;;;;;6207036;28;20022;-76
2022/08/09 13:33:32;;;;;;;4.10;1.20;;;;;;;;;;6201601;28;20047;-76
2022/08/09 13:36:32;;;;;;;7.22;1.33;;;;;;;;;;6202073;28;20057;-76
2022/08/09 13:39:34;;;;;;;4.73;1.67;;;;;;;;;;6198899;28;20026;-76
2022/08/09 13:42:34;;;;;;;3.45;1.27;;;;;;;;;;6200165;28;20496;-76
2022/08/09 13:45:35;;;;;;;4.25;1.77;;;;;;;;;;6201861;28;20025;-76
2022/08/09 13:48:35;;;;;;;4.70;1.10;;;;;;;;;;6200943;28;20779;-77
2022/08/09 13:51:35;;;;;;;7.85;1.30;;;;;;;;;;6190176;28;20437;-76
2022/08/09 13:54:36;;;;;;;4.03;0.97;;;;;;;;;;6201916;28;20018;-76
2022/08/09 13:57:37;;;;;;;7.80;1.40;;;;;;;;;;6198596;28;20049;-76
2022/08/09 14:00:37;;;;;;;5.28;1.58;;;;;;;;;;6198166;28;20034;-77
2022/08/09 14:03:38;;;;;;;6.57;1.43;;;;;;;;;;6196990;28;20046;-76
2022/08/09 14:06:38;;;;;;;9.48;1.90;;;;;;;;;;6230406;28;20113;-76
2022/08/09 14:09:38;;;;;;;5.67;1.37;;;;;;;;;;6198819;28;20022;-76
2022/08/09 14:12:39;;;;;;;8.57;2.20;;;;;;;;;;6200832;28;20049;-77
2022/08/09 14:15:39;;;;;;;6.65;1.63;;;;;;;;;;6200945;28;20029;-76
2022/08/09 14:18:40;;;;;;;9.52;2.03;;;;;;;;;;6203386;28;20058;-76
2022/08/09 14:21:41;;;;;;;6.88;2.08;;;;;;;;;;6199998;28;20022;-76
2022/08/09 14:24:42;;;;;;;8.98;2.05;;;;;;;;;;6200757;28;20015;-76
2022/08/09 14:27:42;;;;;;;12.75;2.10;;;;;;;;;;6204156;28;20053;-76
2022/08/09 14:30:42;;;;;;;8.83;1.83;;;;;;;;;;6200131;28;20498;-76
2022/08/09 14:33:43;;;;;;;9.47;2.13;;;;;;;;;;6200212;28;20112;-75
2022/08/09 14:36:43;;;;;;;7.90;2.00;;;;;;;;;;6202205;28;20619;-76
2022/08/09 14:39:43;;;;;;;7.10;1.87;;;;;;;;;;6201059;28;20550;-76
2022/08/09 14:42:43;;;;;;;12.90;2.47;;;;;;;;;;6203478;28;20014;-76
2022/08/09 14:45:44;;;;;;;9.03;2.00;;;;;;;;;;6204082;28;20026;-76
2022/08/09 14:48:44;;;;;;;11.83;3.07;;;;;;;;;;6203277;28;20018;-76
2022/08/09 14:51:44;;;;;;;7.53;2.03;;;;;;;;;;6214735;28;20089;-76
2022/08/09 14:54:44;;;;;;;6.03;1.93;;;;;;;;;;6200135;28;20046;-75
2022/08/09 14:57:45;;;;;;;8.93;1.87;;;;;;;;;;6201627;28;20014;-76
2022/08/09 15:00:45;;;;;;;8.77;2.20;;;;;;;;;;6210353;28;20018;-76
2022/08/09 15:03:45;;;;;;;7.40;1.93;;;;;;;;;;6201072;28;20036;-76
2022/08/09 15:06:45;;;;;;;3.08;1.48;;;;;;;;;;6236446;28;20015;-76
2022/08/09 15:09:45;;;;;;;9.23;2.00;;;;;;;;;;6204320;28;20077;-76
2022/08/09 15:12:46;;;;;;;4.67;1.77;;;;;;;;;;6204893;28;20018;-76
2022/08/09 15:15:48;;;;;;;4.83;1.73;;;;;;;;;;6204397;28;20026;-76
2022/08/09 15:18:48;;;;;;;10.07;2.70;;;;;;;;;;6203592;28;20023;-76
2022/08/09 15:21:48;;;;;;;10.67;2.17;;;;;;;;;;6194723;28;20011;-76
2022/08/09 15:24:48;;;;;;;7.70;2.33;;;;;;;;;;6188929;28;20153;-76
2022/08/09 15:27:49;;;;;;;5.43;1.33;;;;;;;;;;6200225;28;20026;-75
2022/08/09 15:30:49;;;;;;;3.13;1.47;;;;;;;;;;6199091;28;20532;-76
2022/08/09 15:33:49;;;;;;;2.17;1.60;;;;;;;;;;6200296;28;20125;-76
2022/08/09 15:36:49;;;;;;;3.57;1.37;;;;;;;;;;6200541;28;20212;-76
2022/08/09 15:39:49;;;;;;;9.67;1.67;;;;;;;;;;6196410;28;20548;-76
2022/08/09 15:42:50;;;;;;;5.43;1.40;;;;;;;;;;6193545;28;20379;-76
2022/08/09 15:45:50;;;;;;;6.82;1.50;;;;;;;;;;6190669;28;20072;-75
2022/08/09 15:48:51;;;;;;;5.43;1.50;;;;;;;;;;6196043;28;20062;-75
2022/08/09 15:51:51;;;;;;;4.40;2.20;;;;;;;;;;6193765;28;20026;-75
2022/08/09 15:54:51;;;;;;;7.17;1.97;;;;;;;;;;6193881;28;20021;-75
2022/08/09 15:57:51;;;;;;;2.33;1.63;;;;;;;;;;6190486;28;20201;-75
2022/08/09 16:00:52;;;;;;;2.80;1.63;;;;;;;;;;6193968;28;20050;-74
2022/08/09 16:03:52;;;;;;;10.93;1.90;;;;;;;;;;6194572;28;20025;-75
2022/08/09 16:06:52;;;;;;;2.50;1.43;;;;;;;;;;6196556;28;20018;-75
2022/08/09 16:09:52;;;;;;;6.20;2.00;;;;;;;;;;6193369;28;20022;-75
2022/08/09 16:12:54;;;;;;;9.37;2.73;;;;;;;;;;6195680;28;20029;-74
2022/08/09 16:15:54;;;;;;;12.45;2.92;;;;;;;;;;6197018;28;20061;-75
2022/08/09 16:18:54;;;;;;;14.20;3.30;;;;;;;;;;6194189;28;20362;-75
2022/08/09 16:21:54;;;;;;;12.90;3.20;;;;;;;;;;6210322;28;20501;-75
2022/08/09 16:24:55;;;;;;;14.97;3.20;;;;;;;;;;6198387;28;20029;-74
2022/08/09 16:27:57;;;;;;;6.63;1.83;;;;;;;;;;6194422;28;20018;-75
2022/08/09 16:30:57;;;;;;;3.92;1.83;;;;;;;;;;6198175;28;20070;-77
2022/08/09 16:33:57;;;;;;;7.50;1.73;;;;;;;;;;6198280;28;20554;-76
2022/08/09 16:36:57;;;;;;;6.35;1.85;;;;;;;;;;6200025;28;20058;-76
2022/08/09 16:39:57;;;;;;;10.57;2.30;;;;;;;;;;6200770;28;20022;-76
2022/08/09 16:42:58;;;;;;;12.77;3.40;;;;;;;;;;6191153;28;20050;-76
2022/08/09 16:45:58;;;;;;;9.85;2.65;;;;;;;;;;6196870;28;20148;-76
2022/08/09 16:48:59;;;;;;;5.87;2.17;;;;;;;;;;6196640;28;20077;-77
2022/08/09 16:51:59;;;;;;;9.47;2.37;;;;;;;;;;6196643;28;20022;-76
2022/08/09 16:54:59;;;;;;;7.40;2.53;;;;;;;;;;6220856;28;20033;-76
2022/08/09 16:58:00;;;;;;;16.27;3.07;;;;;;;;;;6195641;28;20056;-77
2022/08/09 17:01:00;;;;;;;11.57;2.27;;;;;;;;;;6190139;28;20022;-76
2022/08/09 17:04:01;;;;;;;18.23;3.43;;;;;;;;;;6196217;28;20050;-76
2022/08/09 17:07:01;;;;;;;8.73;2.50;;;;;;;;;;6196199;28;20710;-76
2022/08/09 17:10:02;;;;;;;6.13;2.50;;;;;;;;;;6195460;28;20042;-77
2022/08/09 17:13:02;;;;;;;10.30;3.22;;;;;;;;;;6193776;28;20021;-77
2022/08/09 17:16:02;;;;;;;6.60;2.03;;;;;;;;;;6196005;28;20026;-76
2022/08/09 17:19:03;;;;;;;5.93;2.67;;;;;;;;;;6193834;28;20055;-77
2022/08/09 17:22:03;;;;;;;6.53;2.33;;;;;;;;;;6197632;28;20033;-76
2022/08/09 17:25:04;;;;;;;21.47;3.00;;;;;;;;;;6197213;28;20025;-76
2022/08/09 17:28:05;;;;;;;;;;;;;;;;;;6196586;28;20493;-76
2022/08/09 17:31:05;;;;;;;8.90;2.20;;;;;;;;;;6201387;28;20356;-77
2022/08/09 17:34:05;;;;;;;13.07;2.70;;;;;;;;;;6196565;28;20077;-76
2022/08/09 17:37:05;;;;;;;10.37;3.00;;;;;;;;;;6192275;28;20775;-76
2022/08/09 17:40:06;;;;;;;13.57;3.47;;;;;;;;;;6196065;28;20022;-76
2022/08/09 17:43:06;;;;;;;15.27;3.90;;;;;;;;;;6190538;28;20015;-76
2022/08/09 17:46:07;;;;;;;14.03;3.43;;;;;;;;;;6201425;28;20022;-76
2022/08/09 17:49:07;;;;;;;16.37;3.80;;;;;;;;;;6191915;28;20023;-77
2022/08/09 17:52:07;;;;;;;7.60;2.73;;;;;;;;;;6196911;28;20446;-77
2022/08/09 17:55:08;;;;;;;12.90;3.33;;;;;;;;;;6196545;28;20027;-77
2022/08/09 17:58:15;;;;;;;13.38;3.47;;;;;;;;;;6199808;28;20036;-76
2022/08/09 18:01:16;;;;;;;15.48;3.45;;;;;;;;;;6199964;28;20011;-76
2022/08/09 18:04:17;;;;;;;14.33;4.10;;;;;;;;;;6202652;28;20081;-77
2022/08/09 18:07:17;;;;;;;15.07;3.60;;;;;;;;;;6198458;28;20751;-76
2022/08/09 18:10:17;;;;;;;19.37;4.10;;;;;;;;;;6198440;28;20015;-76